PWSweather.com
Personal Weather Stations
Station Observations

MakarauRodneyNZ

Lat: -36.52421, Lon: 174.47572

Elevation: 606

Station Type: Davis VP2

http://kaiparaweather.dynu.net/index.php

Latest ConditionsUpdated 11:30:01 AM GMT+12:12 Tuesday, Jul 17, 2018
Currently Today's Max Today's Min Today's Average
Temperature 58.1°F14.5°C 58.1°F14.5°C 51.2°F10.7°C 52.9°F11.6°C
Dew Point 53.9°F12.2°C 54.5°F12.5°C 48.9°F9.4°C 50.5°F10.3°C
Winds 9.2 mph W14.8 kmh W 9.2 mph -14.8 kmh - - 3.4 mph 5.5 kmh
Wind Gusts 12.7 mph20.4 kmh 12.7 mph20.4 kmh - -
Humidity 86% 94% 86% 92%
Pressure 29.95 in1014.2 mb 29.95 in1014.2 mb 29.91 in1012.9 mb -
Precipitation - 0.01 in0.3 mm - -
Hour Temp Dew Point Humidity Winds Wind Gusts Pressure Precip Precip Rate Daily Precip Total
11:30 AM 58.1°F14.5°C 53.9°F12.2°C 86% 9.2 mph W14.8 kmh W 12.7 mph20.4 kmh 29.95 in1014.2 mb - 0.00 in0.0 mm 0.01 in0.3 mm
11:20 AM 57.8°F14.3°C 53.6°F12.0°C 86% 1.2 mph WSW1.9 kmh WSW 4.6 mph7.4 kmh 29.94 in1013.9 mb - 0.00 in0.0 mm 0.01 in0.3 mm
11:10 AM 57.6°F14.2°C 54.1°F12.3°C 88% 3.5 mph W5.6 kmh W 8.1 mph13.0 kmh 29.94 in1013.9 mb - 0.00 in0.0 mm 0.01 in0.3 mm
11:00 AM 57.3°F14.1°C 53.8°F12.1°C 88% Calm Calm 1.2 mph1.9 kmh 29.95 in1014.2 mb - 0.00 in0.0 mm 0.01 in0.3 mm
10:50 AM 57.4°F14.1°C 53.9°F12.2°C 88% 2.3 mph WSW3.7 kmh WSW 4.6 mph7.4 kmh 29.95 in1014.2 mb - 0.00 in0.0 mm 0.01 in0.3 mm
10:40 AM 57.7°F14.3°C 54.5°F12.5°C 89% 2.3 mph NNW3.7 kmh NNW 3.5 mph5.6 kmh 29.95 in1014.2 mb - 0.00 in0.0 mm 0.01 in0.3 mm
10:30 AM 57.2°F14.0°C 53.9°F12.2°C 89% 1.2 mph NW1.9 kmh NW 3.5 mph5.6 kmh 29.95 in1014.2 mb - 0.00 in0.0 mm 0.01 in0.3 mm
10:20 AM 57.1°F13.9°C 54.2°F12.3°C 90% 5.8 mph NW9.3 kmh NW 9.2 mph14.8 kmh 29.95 in1014.2 mb - 0.00 in0.0 mm 0.01 in0.3 mm
10:10 AM 56.2°F13.4°C 53.3°F11.8°C 90% 1.2 mph WSW1.9 kmh WSW 2.3 mph3.7 kmh 29.95 in1014.2 mb - 0.00 in0.0 mm 0.01 in0.3 mm
10:00 AM 56.0°F13.3°C 53.1°F11.7°C 90% 3.5 mph WSW5.6 kmh WSW 4.6 mph7.4 kmh 29.95 in1014.2 mb - 0.00 in0.0 mm 0.01 in0.3 mm
09:50 AM 55.6°F13.1°C 53.3°F11.8°C 92% Calm Calm 3.5 mph5.6 kmh 29.95 in1014.2 mb - 0.00 in0.0 mm 0.01 in0.3 mm
09:40 AM 55.0°F12.8°C 52.7°F11.5°C 92% 4.6 mph WSW7.4 kmh WSW 5.8 mph9.3 kmh 29.95 in1014.2 mb - 0.00 in0.0 mm 0.01 in0.3 mm
09:30 AM 54.4°F12.4°C 52.5°F11.4°C 93% 1.2 mph NW1.9 kmh NW 3.5 mph5.6 kmh 29.95 in1014.2 mb - 0.00 in0.0 mm 0.01 in0.3 mm
09:20 AM 53.7°F12.1°C 51.7°F10.9°C 93% 2.3 mph N3.7 kmh N 3.5 mph5.6 kmh 29.95 in1014.2 mb - 0.00 in0.0 mm 0.01 in0.3 mm
09:10 AM 53.1°F11.7°C 51.1°F10.6°C 93% 1.2 mph NNW1.9 kmh NNW 3.5 mph5.6 kmh 29.95 in1014.2 mb - 0.00 in0.0 mm 0.01 in0.3 mm
09:00 AM 52.7°F11.5°C 50.7°F10.4°C 93% 1.2 mph N1.9 kmh N 3.5 mph5.6 kmh 29.95 in1014.2 mb - 0.00 in0.0 mm 0.01 in0.3 mm
08:50 AM 52.4°F11.3°C 50.4°F10.2°C 93% 2.3 mph N3.7 kmh N 3.5 mph5.6 kmh 29.95 in1014.2 mb - 0.00 in0.0 mm 0.01 in0.3 mm
08:40 AM 52.1°F11.2°C 50.1°F10.1°C 93% Calm Calm -- 29.95 in1014.2 mb - 0.00 in0.0 mm 0.01 in0.3 mm
08:30 AM 51.8°F11.0°C 49.8°F9.9°C 93% 2.3 mph N3.7 kmh N 3.5 mph5.6 kmh 29.95 in1014.2 mb - 0.00 in0.0 mm 0.01 in0.3 mm
08:20 AM 51.7°F10.9°C 49.7°F9.8°C 93% 1.2 mph NW1.9 kmh NW -- 29.94 in1013.9 mb - 0.00 in0.0 mm 0.01 in0.3 mm
08:10 AM 51.6°F10.9°C 49.4°F9.7°C 92% Calm Calm -- 29.95 in1014.2 mb - 0.00 in0.0 mm 0.01 in0.3 mm
08:00 AM 51.8°F11.0°C 49.5°F9.7°C 92% 2.3 mph NNW3.7 kmh NNW 3.5 mph5.6 kmh 29.94 in1013.9 mb - 0.00 in0.0 mm 0.01 in0.3 mm
07:50 AM 51.9°F11.1°C 49.7°F9.8°C 92% Calm Calm 3.5 mph5.6 kmh 29.94 in1013.9 mb - 0.00 in0.0 mm 0.01 in0.3 mm
07:40 AM 52.0°F11.1°C 49.7°F9.8°C 92% 2.3 mph NW3.7 kmh NW 3.5 mph5.6 kmh 29.94 in1013.9 mb - 0.00 in0.0 mm 0.01 in0.3 mm
07:30 AM 51.9°F11.1°C 49.7°F9.8°C 92% Calm Calm -- 29.94 in1013.9 mb - 0.00 in0.0 mm 0.01 in0.3 mm
07:20 AM 52.0°F11.1°C 49.7°F9.8°C 92% Calm Calm -- 29.93 in1013.5 mb - 0.00 in0.0 mm 0.01 in0.3 mm
07:10 AM 52.1°F11.2°C 49.6°F9.8°C 91% 1.2 mph W1.9 kmh W 3.5 mph5.6 kmh 29.93 in1013.5 mb - 0.00 in0.0 mm 0.01 in0.3 mm
07:00 AM 52.4°F11.3°C 49.8°F9.9°C 91% Calm Calm 3.5 mph5.6 kmh 29.93 in1013.5 mb - 0.00 in0.0 mm 0.01 in0.3 mm
06:50 AM 52.3°F11.3°C 49.8°F9.9°C 91% 3.5 mph WSW5.6 kmh WSW 4.6 mph7.4 kmh 29.93 in1013.5 mb - 0.00 in0.0 mm 0.01 in0.3 mm
06:40 AM 52.3°F11.3°C 49.8°F9.9°C 91% 3.5 mph WSW5.6 kmh WSW 3.5 mph5.6 kmh 29.93 in1013.5 mb - 0.00 in0.0 mm 0.01 in0.3 mm
06:30 AM 52.0°F11.1°C 49.5°F9.7°C 91% 8.1 mph NW13.0 kmh NW 9.2 mph14.8 kmh 29.93 in1013.5 mb - 0.00 in0.0 mm 0.01 in0.3 mm
06:20 AM 52.1°F11.2°C 49.6°F9.8°C 91% 4.6 mph WSW7.4 kmh WSW 5.8 mph9.3 kmh 29.93 in1013.5 mb - 0.00 in0.0 mm 0.01 in0.3 mm
06:10 AM 52.0°F11.1°C 49.8°F9.9°C 92% 8.1 mph NW13.0 kmh NW 11.5 mph18.5 kmh 29.92 in1013.2 mb - 0.00 in0.0 mm 0.01 in0.3 mm
06:00 AM 52.2°F11.2°C 49.9°F9.9°C 92% 8.1 mph W13.0 kmh W 11.5 mph18.5 kmh 29.92 in1013.2 mb - 0.00 in0.0 mm 0.01 in0.3 mm
05:50 AM 52.0°F11.1°C 49.8°F9.9°C 92% 5.8 mph WSW9.3 kmh WSW 11.5 mph18.5 kmh 29.93 in1013.5 mb - 0.00 in0.0 mm 0.01 in0.3 mm
05:40 AM 51.8°F11.0°C 49.5°F9.7°C 92% 3.5 mph WSW5.6 kmh WSW 5.8 mph9.3 kmh 29.93 in1013.5 mb - 0.00 in0.0 mm 0.01 in0.3 mm
05:30 AM 51.7°F10.9°C 49.5°F9.7°C 92% 1.2 mph N1.9 kmh N 5.8 mph9.3 kmh 29.93 in1013.5 mb - 0.00 in0.0 mm 0.01 in0.3 mm
05:20 AM 51.8°F11.0°C 49.3°F9.6°C 91% 2.3 mph WSW3.7 kmh WSW 3.5 mph5.6 kmh 29.92 in1013.2 mb - 0.00 in0.0 mm 0.01 in0.3 mm
05:10 AM 51.8°F11.0°C 49.3°F9.6°C 91% 2.3 mph WSW3.7 kmh WSW 4.6 mph7.4 kmh 29.92 in1013.2 mb - 0.00 in0.0 mm 0.01 in0.3 mm
05:00 AM 52.0°F11.1°C 49.5°F9.7°C 91% 4.6 mph WSW7.4 kmh WSW 8.1 mph13.0 kmh 29.92 in1013.2 mb - 0.01 in0.3 mm 0.01 in0.3 mm
04:50 AM 52.0°F11.1°C 49.5°F9.7°C 91% 4.6 mph WNW7.4 kmh WNW 8.1 mph13.0 kmh 29.92 in1013.2 mb - 0.00 in0.0 mm 0.00 in0.0 mm
04:40 AM 52.1°F11.2°C 49.5°F9.7°C 91% 3.5 mph WSW5.6 kmh WSW 3.5 mph5.6 kmh 29.92 in1013.2 mb - 0.00 in0.0 mm 0.00 in0.0 mm
04:30 AM 52.2°F11.2°C 49.7°F9.8°C 91% 4.6 mph N7.4 kmh N 3.5 mph5.6 kmh 29.92 in1013.2 mb - 0.00 in0.0 mm 0.00 in0.0 mm
04:20 AM 52.3°F11.3°C 49.7°F9.8°C 91% 5.8 mph WSW9.3 kmh WSW 5.8 mph9.3 kmh 29.92 in1013.2 mb - 0.00 in0.0 mm 0.00 in0.0 mm
04:10 AM 51.9°F11.1°C 49.4°F9.7°C 91% 5.8 mph WSW9.3 kmh WSW 9.2 mph14.8 kmh 29.92 in1013.2 mb - 0.00 in0.0 mm 0.00 in0.0 mm
04:00 AM 51.6°F10.9°C 49.0°F9.4°C 91% 4.6 mph NW7.4 kmh NW 6.9 mph11.1 kmh 29.92 in1013.2 mb - 0.00 in0.0 mm 0.00 in0.0 mm
03:50 AM 51.5°F10.8°C 49.0°F9.4°C 91% 1.2 mph WSW1.9 kmh WSW 4.6 mph7.4 kmh 29.91 in1012.9 mb - 0.00 in0.0 mm 0.00 in0.0 mm
03:40 AM 51.7°F10.9°C 49.2°F9.6°C 91% 4.6 mph N7.4 kmh N 5.8 mph9.3 kmh 29.92 in1013.2 mb - 0.00 in0.0 mm 0.00 in0.0 mm
03:30 AM 51.7°F10.9°C 49.4°F9.7°C 92% 5.8 mph NW9.3 kmh NW 8.1 mph13.0 kmh 29.92 in1013.2 mb - 0.00 in0.0 mm 0.00 in0.0 mm
03:20 AM 51.4°F10.8°C 49.2°F9.6°C 92% 5.8 mph WSW9.3 kmh WSW 9.2 mph14.8 kmh 29.92 in1013.2 mb - 0.00 in0.0 mm 0.00 in0.0 mm
03:10 AM 51.2°F10.7°C 48.9°F9.4°C 92% 5.8 mph WSW9.3 kmh WSW 9.2 mph14.8 kmh 29.92 in1013.2 mb - 0.00 in0.0 mm 0.00 in0.0 mm
03:00 AM 51.2°F10.7°C 49.0°F9.4°C 92% 1.2 mph WSW1.9 kmh WSW 4.6 mph7.4 kmh 29.92 in1013.2 mb - 0.00 in0.0 mm 0.00 in0.0 mm
02:50 AM 51.4°F10.8°C 49.4°F9.7°C 93% 2.3 mph WSW3.7 kmh WSW 4.6 mph7.4 kmh 29.92 in1013.2 mb - 0.00 in0.0 mm 0.00 in0.0 mm
02:40 AM 51.4°F10.8°C 49.4°F9.7°C 93% 2.3 mph WSW3.7 kmh WSW 5.8 mph9.3 kmh 29.92 in1013.2 mb - 0.00 in0.0 mm 0.00 in0.0 mm
02:30 AM 51.4°F10.8°C 49.5°F9.7°C 93% 3.5 mph WSW5.6 kmh WSW 5.8 mph9.3 kmh 29.92 in1013.2 mb - 0.00 in0.0 mm 0.00 in0.0 mm
02:20 AM 51.6°F10.9°C 49.7°F9.8°C 93% 2.3 mph WSW3.7 kmh WSW 5.8 mph9.3 kmh 29.92 in1013.2 mb - 0.00 in0.0 mm 0.00 in0.0 mm
02:10 AM 51.8°F11.0°C 49.8°F9.9°C 93% 4.6 mph W7.4 kmh W 5.8 mph9.3 kmh 29.93 in1013.5 mb - 0.00 in0.0 mm 0.00 in0.0 mm
02:00 AM 51.8°F11.0°C 49.8°F9.9°C 93% 5.8 mph WSW9.3 kmh WSW 9.2 mph14.8 kmh 29.92 in1013.2 mb - 0.00 in0.0 mm 0.00 in0.0 mm
01:50 AM 52.1°F11.2°C 50.1°F10.1°C 93% 3.5 mph WSW5.6 kmh WSW 5.8 mph9.3 kmh 29.92 in1013.2 mb - 0.00 in0.0 mm 0.00 in0.0 mm
01:40 AM 52.4°F11.3°C 50.4°F10.2°C 93% 5.8 mph W9.3 kmh W 9.2 mph14.8 kmh 29.93 in1013.5 mb - 0.00 in0.0 mm 0.00 in0.0 mm
01:30 AM 52.3°F11.3°C 50.3°F10.2°C 93% 5.8 mph WSW9.3 kmh WSW 9.2 mph14.8 kmh 29.93 in1013.5 mb - 0.00 in0.0 mm 0.00 in0.0 mm
01:20 AM 52.6°F11.4°C 50.6°F10.3°C 93% 4.6 mph WSW7.4 kmh WSW 8.1 mph13.0 kmh 29.92 in1013.2 mb - 0.00 in0.0 mm 0.00 in0.0 mm
01:10 AM 52.6°F11.4°C 50.9°F10.5°C 94% 6.9 mph WNW11.1 kmh WNW 11.5 mph18.5 kmh 29.93 in1013.5 mb - 0.00 in0.0 mm 0.00 in0.0 mm
01:00 AM 52.4°F11.3°C 50.7°F10.4°C 94% 5.8 mph WSW9.3 kmh WSW 10.4 mph16.7 kmh 29.93 in1013.5 mb - 0.00 in0.0 mm 0.00 in0.0 mm
12:50 AM 52.6°F11.4°C 50.9°F10.5°C 94% 3.5 mph WSW5.6 kmh WSW 8.1 mph13.0 kmh 29.93 in1013.5 mb - 0.00 in0.0 mm 0.00 in0.0 mm
12:40 AM 52.3°F11.3°C 50.6°F10.3°C 94% 8.1 mph WNW13.0 kmh WNW 10.4 mph16.7 kmh 29.93 in1013.5 mb - 0.00 in0.0 mm 0.00 in0.0 mm
12:30 AM 52.2°F11.2°C 50.5°F10.3°C 94% 4.6 mph WSW7.4 kmh WSW 9.2 mph14.8 kmh 29.92 in1013.2 mb - 0.00 in0.0 mm 0.00 in0.0 mm
12:20 AM 52.1°F11.2°C 50.4°F10.2°C 94% 3.5 mph WSW5.6 kmh WSW 5.8 mph9.3 kmh 29.92 in1013.2 mb - 0.00 in0.0 mm 0.00 in0.0 mm
12:10 AM 51.6°F10.9°C 49.9°F9.9°C 94% 3.5 mph WSW5.6 kmh WSW 5.8 mph9.3 kmh 29.92 in1013.2 mb - 0.00 in0.0 mm 0.00 in0.0 mm
12:00 AM 51.5°F10.8°C 49.9°F9.9°C 94% 2.3 mph NNW3.7 kmh NNW 3.5 mph5.6 kmh 29.93 in1013.5 mb - 0.00 in0.0 mm 0.00 in0.0 mm